Time;durP1;ratioP1;P1;durP2;ratioP2;P2;SDS_P1;SDS_P2;PMS_P1;PMS_P2;Temp;Humidity;BMP_temperature;BMP_pressure;BME280_temperature;BME280_humidity;BME280_pressure;Samples;Min_cycle;Max_cycle;Signal;HPM_P1;HPM_P2
2021/12/03 00:00:48;;;;;;;3.63;2.73;;;16.40;56.90;17.00;100281.00;;;;4969773;28;20188;-41
2021/12/03 00:03:14;;;;;;;4.07;2.80;;;16.30;56.90;17.00;100280.00;;;;4969566;28;20209;-41
2021/12/03 00:05:40;;;;;;;2.70;2.50;;;16.30;57.00;17.00;100285.00;;;;4969202;28;20211;-41
2021/12/03 00:08:06;;;;;;;3.93;3.30;;;16.30;56.80;17.00;100283.00;;;;4969483;28;20831;-41
2021/12/03 00:10:34;;;;;;;4.27;2.97;;;16.20;56.90;17.00;100276.00;;;;4969547;28;20180;-40
2021/12/03 00:12:59;;;;;;;3.77;3.00;;;16.20;56.60;17.00;100280.00;;;;4969366;28;20782;-41
2021/12/03 00:15:25;;;;;;;3.13;2.83;;;16.20;56.70;17.00;100268.00;;;;4969695;28;20212;-41
2021/12/03 00:17:52;;;;;;;3.90;2.70;;;16.10;56.60;17.00;100270.00;;;;4969403;28;20204;-41
2021/12/03 00:20:18;;;;;;;3.20;2.90;;;16.10;56.90;17.00;100273.00;;;;4969313;28;20196;-41
2021/12/03 00:22:46;;;;;;;3.27;3.03;;;16.00;56.90;17.00;100272.00;;;;4969050;28;20205;-40
2021/12/03 00:25:11;;;;;;;3.10;2.80;;;16.00;56.80;17.00;100279.00;;;;4969265;28;20205;-40
2021/12/03 00:27:38;;;;;;;2.80;2.50;;;16.00;56.90;17.00;100268.00;;;;4969285;28;20153;-40
2021/12/03 00:30:05;;;;;;;3.80;2.90;;;15.90;56.90;16.90;100277.00;;;;4968899;28;20196;-40
2021/12/03 00:32:31;;;;;;;3.50;2.90;;;15.90;57.30;16.90;100273.00;;;;4968936;28;20189;-41
2021/12/03 00:34:57;;;;;;;2.80;2.60;;;15.90;56.90;16.90;100266.00;;;;4969171;28;20644;-40
2021/12/03 00:37:22;;;;;;;3.20;2.90;;;15.90;56.90;16.90;100268.00;;;;4968848;28;20188;-40
2021/12/03 00:39:48;;;;;;;2.93;2.73;;;15.90;56.90;16.90;100274.00;;;;4969347;28;20185;-41
2021/12/03 00:42:17;;;;;;;3.03;2.73;;;15.80;57.10;16.90;100269.00;;;;4967927;28;20211;-40
2021/12/03 00:44:45;;;;;;;2.70;2.50;;;15.80;57.10;16.80;100277.00;;;;4969233;28;20209;-40
2021/12/03 00:47:11;;;;;;;3.23;2.93;;;15.80;57.10;16.80;100273.00;;;;4968858;28;20189;-40
2021/12/03 00:49:37;;;;;;;3.10;2.80;;;15.80;57.10;16.80;100282.00;;;;4968818;28;20554;-41
2021/12/03 00:52:03;;;;;;;2.80;2.60;;;15.70;57.30;16.80;100284.00;;;;4968524;28;20196;-41
2021/12/03 00:54:28;;;;;;;3.30;2.93;;;15.70;57.20;16.80;100299.00;;;;4968805;28;20244;-40
2021/12/03 00:56:54;;;;;;;4.20;3.00;;;15.70;57.40;16.70;100296.00;;;;4969071;28;20193;-40
2021/12/03 00:59:20;;;;;;;2.80;2.60;;;15.70;57.30;16.70;100294.00;;;;4968838;28;20567;-41
2021/12/03 01:01:45;;;;;;;2.70;2.50;;;15.60;57.30;16.70;100290.00;;;;4968506;28;20197;-40
2021/12/03 01:04:11;;;;;;;3.00;2.80;;;15.60;57.30;16.70;100294.00;;;;4970295;28;20183;-41
2021/12/03 01:06:37;;;;;;;3.00;2.70;;;15.60;57.30;16.70;100292.00;;;;4973239;28;20589;-41
2021/12/03 01:09:03;;;;;;;2.57;2.37;;;15.60;57.30;16.70;100290.00;;;;4968677;28;20212;-41
2021/12/03 01:11:29;;;;;;;2.90;2.67;;;15.60;57.40;16.60;100288.00;;;;4968469;28;20332;-40
2021/12/03 01:14:00;;;;;;;2.80;2.60;;;15.50;57.30;16.60;100298.00;;;;4968704;28;20177;-40
2021/12/03 01:16:26;;;;;;;2.80;2.60;;;15.50;57.30;16.60;100306.00;;;;4968773;28;20204;-40
2021/12/03 01:18:52;;;;;;;2.90;2.70;;;15.50;57.30;16.60;100300.00;;;;4968183;28;20539;-41
2021/12/03 01:21:18;;;;;;;4.03;2.70;;;15.50;57.30;16.60;100306.00;;;;4968461;28;20200;-40
2021/12/03 01:23:45;;;;;;;3.13;2.83;;;15.40;57.30;16.50;100322.00;;;;4968953;28;20181;-41
2021/12/03 01:26:11;;;;;;;3.47;2.97;;;15.40;57.30;16.50;100318.00;;;;4968508;28;20197;-41
2021/12/03 01:28:36;;;;;;;2.70;2.50;;;15.40;57.20;16.50;100317.00;;;;4968501;28;20173;-40
2021/12/03 01:31:02;;;;;;;3.13;2.73;;;15.40;57.40;16.50;100326.00;;;;4967885;28;20231;-41
2021/12/03 01:33:28;;;;;;;2.80;2.60;;;15.30;57.40;16.50;100324.00;;;;4968328;28;20173;-41
2021/12/03 01:35:54;;;;;;;2.83;2.63;;;15.30;57.30;16.50;100331.00;;;;4968419;28;20184;-41
2021/12/03 01:38:20;;;;;;;2.90;2.70;;;15.30;57.30;16.40;100322.00;;;;4968290;28;20184;-40
2021/12/03 01:40:45;;;;;;;2.80;2.57;;;15.30;57.40;16.40;100320.00;;;;4968378;28;20259;-41
2021/12/03 01:43:20;;;;;;;3.27;3.00;;;15.30;57.30;16.40;100320.00;;;;4967702;28;20336;-41
2021/12/03 01:45:45;;;;;;;3.00;2.73;;;15.30;57.40;16.40;100319.00;;;;4968533;28;20266;-40
2021/12/03 01:48:11;;;;;;;2.90;2.70;;;15.30;57.50;16.40;100325.00;;;;4968087;28;20628;-40
2021/12/03 01:50:41;;;;;;;2.97;2.77;;;15.30;57.50;16.30;100317.00;;;;4968045;28;20172;-40
2021/12/03 01:53:07;;;;;;;3.20;3.00;;;15.20;57.40;16.30;100304.00;;;;4969285;28;20284;-40
2021/12/03 01:55:33;;;;;;;3.07;2.87;;;15.20;57.50;16.30;100309.00;;;;4971871;28;20239;-40
2021/12/03 01:57:59;;;;;;;2.80;2.60;;;15.20;57.60;16.30;100307.00;;;;4970678;28;20193;-40
2021/12/03 02:00:42;;;;;;;2.93;2.70;;;15.20;57.60;16.30;100306.00;;;;4972220;28;20812;-40
2021/12/03 02:03:08;;;;;;;2.90;2.70;;;15.10;57.50;16.20;100320.00;;;;4971668;28;20597;-41
2021/12/03 02:05:34;;;;;;;2.90;2.70;;;15.10;57.70;16.20;100335.00;;;;4971908;28;20217;-41
2021/12/03 02:08:00;;;;;;;3.43;3.00;;;15.10;57.70;16.20;100331.00;;;;4971707;28;20180;-41
2021/12/03 02:10:25;;;;;;;2.80;2.60;;;15.10;57.60;15.90;100325.00;;;;4971789;28;20185;-40
2021/12/03 02:12:51;;;;;;;2.90;2.70;;;15.00;57.60;16.20;100325.00;;;;4971551;28;20188;-40
2021/12/03 02:15:17;;;;;;;2.70;2.50;;;15.00;57.50;16.20;100330.00;;;;4971731;28;20272;-40
2021/12/03 02:17:43;;;;;;;2.97;2.60;;;15.00;57.60;16.20;100325.00;;;;4970440;28;20185;-40
2021/12/03 02:20:10;;;;;;;2.83;2.63;;;15.10;57.70;16.10;100318.00;;;;4971259;28;20177;-41
2021/12/03 02:22:37;;;;;;;3.03;2.70;;;15.00;57.60;16.10;100325.00;;;;4971306;28;20213;-41
2021/12/03 02:25:05;;;;;;;2.67;2.47;;;15.00;57.60;16.10;100314.00;;;;4971199;28;20203;-40
2021/12/03 02:27:31;;;;;;;2.80;2.50;;;15.00;57.50;16.10;100320.00;;;;4971813;28;20184;-40
2021/12/03 02:29:56;;;;;;;3.10;2.80;;;15.00;57.60;16.10;100333.00;;;;4970447;28;20284;-41
2021/12/03 02:32:22;;;;;;;2.90;2.70;;;15.00;57.70;16.00;100326.00;;;;4971297;28;20228;-40
2021/12/03 02:34:48;;;;;;;2.83;2.63;;;14.90;57.60;16.00;100330.00;;;;4971276;28;20208;-40
2021/12/03 02:37:13;;;;;;;3.00;2.80;;;14.90;57.60;16.00;100321.00;;;;4971483;28;20185;-41
2021/12/03 02:39:39;;;;;;;2.90;2.70;;;14.90;57.60;16.00;100320.00;;;;4971121;28;20231;-41
2021/12/03 02:42:05;;;;;;;3.30;3.00;;;14.90;57.70;16.00;100319.00;;;;4975143;28;20194;-41
2021/12/03 02:44:31;;;;;;;2.80;2.60;;;14.90;57.80;16.00;100326.00;;;;4975276;28;20243;-40
2021/12/03 02:46:57;;;;;;;3.20;2.90;;;14.80;57.70;16.00;100334.00;;;;4971218;28;20192;-40
2021/12/03 02:49:22;;;;;;;2.70;2.50;;;14.90;57.70;16.00;100325.00;;;;4973770;28;20628;-41
2021/12/03 02:51:48;;;;;;;3.20;2.90;;;14.80;57.70;16.00;100320.00;;;;4975090;28;20193;-40
2021/12/03 02:54:14;;;;;;;2.97;2.73;;;14.80;57.80;15.90;100322.00;;;;4972478;28;20173;-41
2021/12/03 02:56:39;;;;;;;2.83;2.63;;;14.80;57.80;15.90;100325.00;;;;4971122;28;20169;-40
2021/12/03 02:59:05;;;;;;;2.80;2.60;;;14.80;57.70;15.90;100323.00;;;;4970793;28;20192;-40
2021/12/03 03:01:31;;;;;;;2.90;2.70;;;14.80;57.90;15.90;100335.00;;;;4970475;28;20192;-40
2021/12/03 03:03:57;;;;;;;2.90;2.70;;;14.80;57.80;15.90;100318.00;;;;4970539;28;20256;-40
2021/12/03 03:06:23;;;;;;;3.00;2.80;;;14.70;57.70;15.80;100332.00;;;;4969685;28;20889;-40
2021/12/03 03:08:48;;;;;;;2.60;2.40;;;14.70;58.10;15.80;100322.00;;;;4970628;28;20176;-41
2021/12/03 03:11:16;;;;;;;2.90;2.70;;;14.70;58.20;15.80;100323.00;;;;4969970;28;20663;-41
2021/12/03 03:13:42;;;;;;;3.03;2.73;;;14.70;58.20;15.70;100323.00;;;;4971196;28;20183;-41
2021/12/03 03:16:08;;;;;;;2.77;2.57;;;14.60;58.20;15.80;100330.00;;;;4970937;28;20180;-40
2021/12/03 03:18:33;;;;;;;2.83;2.63;;;14.70;58.20;15.70;100323.00;;;;4970532;28;20776;-40
2021/12/03 03:21:00;;;;;;;3.03;2.77;;;14.60;58.30;15.70;100312.00;;;;4970368;28;20196;-40
2021/12/03 03:23:26;;;;;;;2.90;2.70;;;14.50;58.20;15.70;100330.00;;;;4970421;28;20188;-41
2021/12/03 03:25:52;;;;;;;3.00;2.70;;;14.50;58.20;15.70;100326.00;;;;4970252;28;20200;-40
2021/12/03 03:28:19;;;;;;;2.70;2.50;;;14.50;58.10;15.70;100325.00;;;;4953262;28;20173;-40
2021/12/03 03:30:46;;;;;;;2.80;2.60;;;14.50;58.10;15.70;100324.00;;;;4970590;28;20251;-40
2021/12/03 03:33:12;;;;;;;2.73;2.53;;;14.50;58.10;15.60;100346.00;;;;4970317;28;20201;-40
2021/12/03 03:35:37;;;;;;;2.90;2.70;;;14.50;58.30;15.70;100333.00;;;;4969881;28;20231;-41
2021/12/03 03:38:03;;;;;;;2.80;2.60;;;14.50;58.30;15.60;100331.00;;;;4970294;28;20181;-41
2021/12/03 03:40:29;;;;;;;2.87;2.67;;;14.50;58.10;15.60;100331.00;;;;4970103;28;20177;-41
2021/12/03 03:42:57;;;;;;;2.80;2.60;;;14.50;58.20;15.60;100326.00;;;;4970195;28;20239;-40
2021/12/03 03:45:24;;;;;;;2.80;2.60;;;14.50;58.20;15.60;100324.00;;;;4970054;28;20259;-40
2021/12/03 03:47:49;;;;;;;3.10;2.90;;;14.50;58.50;15.60;100335.00;;;;4969558;28;20780;-40
2021/12/03 03:50:16;;;;;;;2.70;2.50;;;14.40;58.30;15.60;100332.00;;;;4969923;28;20170;-40
2021/12/03 03:52:43;;;;;;;2.80;2.60;;;14.40;58.30;15.60;100317.00;;;;4968622;28;20189;-40
2021/12/03 03:55:10;;;;;;;2.90;2.70;;;14.40;58.40;15.50;100311.00;;;;4984742;28;20212;-40
2021/12/03 03:57:35;;;;;;;2.80;2.60;;;14.40;58.30;15.60;100314.00;;;;4969614;28;20306;-40
2021/12/03 04:00:02;;;;;;;2.83;2.60;;;14.40;58.20;15.50;100316.00;;;;4969640;28;20189;-40
2021/12/03 04:02:28;;;;;;;2.90;2.70;;;14.40;58.30;15.50;100319.00;;;;4969942;28;20611;-40
2021/12/03 04:04:54;;;;;;;2.90;2.70;;;14.30;59.00;15.50;100307.00;;;;4969687;28;20209;-40
2021/12/03 04:07:20;;;;;;;2.80;2.60;;;14.30;58.40;15.50;100295.00;;;;4969638;28;20181;-40
2021/12/03 04:09:45;;;;;;;3.00;2.70;;;14.30;58.40;15.40;100292.00;;;;4969869;28;20197;-40
2021/12/03 04:12:11;;;;;;;2.70;2.50;;;14.30;58.50;15.40;100292.00;;;;4969333;28;20698;-40
2021/12/03 04:14:37;;;;;;;2.80;2.60;;;14.30;58.60;15.40;100284.00;;;;4968254;28;20216;-41
2021/12/03 04:17:03;;;;;;;2.80;2.60;;;14.20;58.60;15.40;100286.00;;;;4969391;28;20180;-40
2021/12/03 04:19:28;;;;;;;2.80;2.60;;;14.20;58.60;15.40;100286.00;;;;4971406;28;20185;-40
2021/12/03 04:21:54;;;;;;;2.80;2.60;;;14.30;58.80;15.40;100277.00;;;;4969271;28;20209;-40
2021/12/03 04:24:20;;;;;;;2.60;2.40;;;14.20;58.60;15.40;100285.00;;;;4969372;28;20185;-40
2021/12/03 04:26:45;;;;;;;3.40;2.47;;;14.20;58.60;15.40;100277.00;;;;4969563;28;20543;-40
2021/12/03 04:29:12;;;;;;;3.10;2.80;;;14.20;59.10;15.30;100272.00;;;;4969088;28;20177;-40
2021/12/03 04:31:38;;;;;;;3.03;2.60;;;14.20;59.10;15.30;100268.00;;;;4967580;28;20695;-40
2021/12/03 04:34:03;;;;;;;8.13;2.80;;;14.20;58.70;15.30;100270.00;;;;4969220;28;20227;-41
2021/12/03 04:36:29;;;;;;;2.90;2.60;;;14.20;59.10;15.30;100279.00;;;;4968998;28;20173;-40
2021/12/03 04:38:55;;;;;;;6.70;3.10;;;14.20;58.80;15.30;100282.00;;;;4968747;28;20213;-41
2021/12/03 04:41:21;;;;;;;7.73;2.67;;;14.20;58.90;15.30;100276.00;;;;4968295;28;20197;-41
2021/12/03 04:43:46;;;;;;;2.90;2.60;;;14.20;58.90;15.30;100279.00;;;;4968858;28;20364;-41
2021/12/03 04:46:12;;;;;;;4.47;2.73;;;14.20;58.80;15.30;100269.00;;;;4968840;28;20209;-40
2021/12/03 04:48:38;;;;;;;3.10;2.80;;;14.20;58.70;15.30;100277.00;;;;4969093;28;20173;-41
2021/12/03 04:51:04;;;;;;;4.23;3.20;;;14.20;58.80;15.30;100269.00;;;;4968443;28;20181;-40
2021/12/03 04:53:29;;;;;;;3.67;3.17;;;14.20;58.30;15.30;100269.00;;;;4968556;28;20199;-41
2021/12/03 04:55:55;;;;;;;5.57;3.40;;;14.20;58.30;15.30;100259.00;;;;4968755;28;20189;-40
2021/12/03 04:58:21;;;;;;;4.93;3.67;;;14.20;58.30;15.30;100270.00;;;;4968798;28;20643;-40
2021/12/03 05:00:52;;;;;;;6.20;3.70;;;14.20;58.20;15.20;100265.00;;;;4968357;28;20180;-41
2021/12/03 05:03:18;;;;;;;3.70;3.40;;;14.10;58.20;15.20;100257.00;;;;4968362;28;20627;-40
2021/12/03 05:05:54;;;;;;;4.00;3.60;;;14.20;58.20;15.20;100263.00;;;;4968525;28;20208;-40
2021/12/03 05:08:20;;;;;;;4.97;4.00;;;14.10;58.70;15.20;100180.00;;;;4968723;28;20164;-40
2021/12/03 05:10:45;;;;;;;4.33;3.73;;;14.10;57.90;15.20;100267.00;;;;4968576;28;20268;-40
2021/12/03 05:13:20;;;;;;;5.53;4.00;;;14.10;57.80;15.20;100276.00;;;;4963898;28;20257;-40
2021/12/03 05:15:46;;;;;;;4.20;3.80;;;14.10;57.80;15.20;100285.00;;;;4965078;28;20187;-40
2021/12/03 05:18:15;;;;;;;4.10;3.70;;;14.10;57.60;15.20;100276.00;;;;4969548;28;20193;-41
2021/12/03 05:20:42;;;;;;;4.57;3.63;;;14.10;57.70;15.10;100280.00;;;;4971813;28;20547;-40
2021/12/03 05:23:08;;;;;;;4.30;3.90;;;14.10;57.70;15.10;100210.00;;;;4970410;28;20689;-40
2021/12/03 05:25:33;;;;;;;5.43;4.30;;;14.10;57.50;15.10;100291.00;;;;4967232;28;20683;-41
2021/12/03 05:27:59;;;;;;;4.27;3.97;;;14.10;57.50;14.90;100288.00;;;;4967348;28;20177;-40
2021/12/03 05:30:25;;;;;;;4.20;3.80;;;14.00;57.50;15.10;100289.00;;;;4968229;28;20256;-41
2021/12/03 05:32:51;;;;;;;4.33;3.90;;;14.00;57.50;15.10;100297.00;;;;4968466;28;20247;-40
2021/12/03 05:35:17;;;;;;;5.17;4.13;;;14.00;57.50;15.10;100286.00;;;;4967963;28;20627;-43
2021/12/03 05:37:43;;;;;;;4.50;3.60;;;14.00;57.40;15.10;100292.00;;;;4967782;28;20208;-40
2021/12/03 05:40:09;;;;;;;4.30;3.90;;;14.00;57.50;14.80;100278.00;;;;4967934;28;20189;-41
2021/12/03 05:42:36;;;;;;;4.10;3.80;;;13.90;57.50;15.10;100283.00;;;;4967707;28;20570;-40
2021/12/03 05:45:07;;;;;;;4.67;4.20;;;13.90;57.40;15.10;100286.00;;;;4966963;28;20204;-41
2021/12/03 05:47:32;;;;;;;6.50;4.30;;;13.90;57.30;15.00;100286.00;;;;4966336;28;20192;-40
2021/12/03 05:49:58;;;;;;;4.77;4.20;;;13.90;57.40;15.00;100289.00;;;;4968235;28;20200;-41
2021/12/03 05:52:24;;;;;;;6.50;4.50;;;13.90;57.40;15.00;100290.00;;;;4967733;28;20204;-40
2021/12/03 05:54:50;;;;;;;5.53;4.30;;;13.90;57.30;15.00;100298.00;;;;4968533;28;20215;-40
2021/12/03 05:57:15;;;;;;;7.27;4.07;;;13.90;57.40;15.00;100294.00;;;;4967437;28;20176;-40
2021/12/03 05:59:41;;;;;;;6.33;4.43;;;13.90;57.40;15.00;100299.00;;;;4968078;28;20184;-40
2021/12/03 06:02:07;;;;;;;6.00;4.10;;;13.90;57.40;15.00;100282.00;;;;4965833;28;20208;-40
2021/12/03 06:04:32;;;;;;;5.83;4.20;;;13.90;57.70;15.00;100291.00;;;;4967503;28;20188;-40
2021/12/03 06:06:58;;;;;;;6.43;4.33;;;13.90;57.40;15.00;100295.00;;;;4967399;28;20208;-40
2021/12/03 06:09:24;;;;;;;5.17;4.37;;;13.90;57.40;14.90;100294.00;;;;4966955;28;20185;-40
2021/12/03 06:11:50;;;;;;;6.07;4.23;;;13.90;57.50;15.00;100298.00;;;;4966437;28;20686;-40
2021/12/03 06:14:15;;;;;;;9.97;4.80;;;13.90;57.60;14.90;100296.00;;;;4967122;28;20208;-40
2021/12/03 06:16:41;;;;;;;7.47;4.70;;;13.90;57.40;14.90;100294.00;;;;4967716;28;20180;-40
2021/12/03 06:19:07;;;;;;;7.77;4.77;;;13.80;57.30;14.90;100291.00;;;;4967543;28;20532;-40
2021/12/03 06:21:32;;;;;;;6.97;4.73;;;13.80;57.50;14.90;100298.00;;;;4967419;28;20201;-40
2021/12/03 06:23:58;;;;;;;6.33;4.43;;;13.80;57.40;14.90;100289.00;;;;4968523;28;20185;-40
2021/12/03 06:26:24;;;;;;;8.73;5.10;;;13.80;57.40;14.90;100289.00;;;;4968194;28;20201;-40
2021/12/03 06:28:50;;;;;;;7.83;4.40;;;13.80;57.40;14.90;100283.00;;;;4967092;28;20209;-40
2021/12/03 06:31:15;;;;;;;5.23;4.17;;;13.80;57.40;14.90;100294.00;;;;4967422;28;20687;-40
2021/12/03 06:33:41;;;;;;;7.23;4.37;;;13.80;57.40;14.90;100299.00;;;;4967917;28;20184;-41
2021/12/03 06:36:07;;;;;;;5.53;4.23;;;13.80;57.60;14.90;100280.00;;;;4967722;28;20570;-40
2021/12/03 06:38:33;;;;;;;6.57;4.47;;;13.80;57.60;14.80;100287.00;;;;4966355;28;20189;-39
2021/12/03 06:40:59;;;;;;;6.50;4.20;;;13.70;57.50;14.80;100294.00;;;;4969393;28;20265;-40
2021/12/03 06:43:25;;;;;;;6.07;4.10;;;13.70;57.50;14.80;100300.00;;;;4970707;28;20189;-40
2021/12/03 06:45:51;;;;;;;4.70;3.60;;;13.70;57.50;14.80;100295.00;;;;4971326;28;20211;-39
2021/12/03 06:48:16;;;;;;;5.20;3.80;;;13.70;57.50;14.80;100299.00;;;;4970501;28;20630;-39
2021/12/03 06:50:48;;;;;;;4.77;3.90;;;13.70;57.50;14.80;100296.00;;;;4970639;28;20664;-39
2021/12/03 06:53:14;;;;;;;3.97;3.53;;;13.70;57.60;14.50;100294.00;;;;4970794;28;20220;-41
2021/12/03 06:55:53;;;;;;;5.63;3.90;;;13.70;57.60;14.80;100302.00;;;;4970623;28;20188;-41
2021/12/03 06:58:20;;;;;;;4.30;3.50;;;13.70;57.60;14.80;100302.00;;;;4970455;28;20165;-41
2021/12/03 07:00:48;;;;;;;4.07;3.43;;;13.70;57.60;14.80;100302.00;;;;4970657;28;20176;-41
2021/12/03 07:03:14;;;;;;;4.03;3.30;;;13.70;57.70;14.80;100300.00;;;;4972308;28;20231;-41
2021/12/03 07:05:40;;;;;;;4.23;3.30;;;13.60;57.60;14.80;100296.00;;;;4970996;28;20201;-41
2021/12/03 07:08:06;;;;;;;4.43;3.70;;;13.60;57.70;14.80;100293.00;;;;4971508;28;20172;-41
2021/12/03 07:10:31;;;;;;;4.40;3.50;;;13.60;57.70;14.70;100284.00;;;;4970461;28;20185;-41
2021/12/03 07:12:57;;;;;;;4.63;3.43;;;13.60;57.70;14.70;100294.00;;;;4970618;28;20193;-41
2021/12/03 07:15:23;;;;;;;4.33;3.20;;;13.60;57.70;14.70;100292.00;;;;4970390;28;20196;-41
2021/12/03 07:17:50;;;;;;;4.03;3.50;;;13.60;57.80;14.70;100287.00;;;;4969837;28;20173;-41
2021/12/03 07:20:21;;;;;;;3.97;3.30;;;13.60;57.80;14.70;100287.00;;;;4970063;28;20185;-41
2021/12/03 07:22:46;;;;;;;3.60;3.17;;;13.60;57.80;14.70;100280.00;;;;4970112;28;20566;-41
2021/12/03 07:25:12;;;;;;;4.13;3.13;;;13.60;57.80;14.70;100293.00;;;;4970265;28;20201;-41
2021/12/03 07:27:38;;;;;;;4.23;3.40;;;13.50;57.70;14.70;100288.00;;;;4969807;28;20169;-41
2021/12/03 07:30:05;;;;;;;4.37;3.30;;;13.60;57.80;14.70;100291.00;;;;4970422;28;20184;-42
2021/12/03 07:32:31;;;;;;;4.43;3.27;;;13.50;57.70;14.70;100289.00;;;;4969509;28;20201;-41
2021/12/03 07:34:57;;;;;;;4.10;3.23;;;13.50;57.80;14.60;100292.00;;;;4970449;28;20263;-41
2021/12/03 07:37:23;;;;;;;4.13;3.43;;;13.50;57.70;14.70;100302.00;;;;4969407;28;20226;-41
2021/12/03 07:39:49;;;;;;;5.10;3.20;;;13.50;57.70;14.60;100292.00;;;;4970244;28;20585;-40
2021/12/03 07:42:15;;;;;;;4.20;3.50;;;13.50;57.70;14.60;100290.00;;;;4969555;28;20200;-40
2021/12/03 07:44:41;;;;;;;3.90;3.50;;;13.50;57.70;14.60;100286.00;;;;4969812;28;20802;-39
2021/12/03 07:47:07;;;;;;;5.83;3.60;;;13.50;57.70;14.60;100289.00;;;;4969286;28;20185;-40
2021/12/03 07:49:33;;;;;;;4.70;3.67;;;13.50;57.70;14.60;100296.00;;;;4969849;28;20177;-40
2021/12/03 07:51:59;;;;;;;4.30;3.47;;;13.40;58.20;14.60;100297.00;;;;4969248;28;20569;-42
2021/12/03 07:54:25;;;;;;;4.60;3.80;;;13.50;57.70;14.60;100309.00;;;;4968728;28;20176;-41
2021/12/03 07:56:50;;;;;;;4.43;3.70;;;13.50;57.70;14.60;100291.00;;;;4969244;28;20172;-41
2021/12/03 07:59:16;;;;;;;4.90;3.80;;;13.50;57.70;14.50;100294.00;;;;4969331;28;20208;-41
2021/12/03 08:01:43;;;;;;;4.90;3.93;;;13.40;57.60;14.50;100290.00;;;;4968113;28;20189;-41
2021/12/03 08:04:10;;;;;;;4.20;3.60;;;13.50;57.80;14.50;100297.00;;;;4969404;28;20168;-41
2021/12/03 08:06:39;;;;;;;4.60;3.67;;;13.40;57.60;14.50;100293.00;;;;4969523;28;20664;-41
2021/12/03 08:09:05;;;;;;;4.70;4.00;;;13.40;57.60;14.50;100308.00;;;;4969232;28;20208;-41
2021/12/03 08:11:31;;;;;;;4.70;4.20;;;13.40;57.60;14.50;100309.00;;;;4969222;28;20197;-41
2021/12/03 08:13:57;;;;;;;5.10;3.90;;;13.40;57.70;14.50;100302.00;;;;4969914;28;20162;-41
2021/12/03 08:16:22;;;;;;;5.53;4.23;;;13.30;57.60;14.50;100302.00;;;;4969265;28;20211;-41
2021/12/03 08:18:48;;;;;;;5.30;4.20;;;13.30;57.60;14.50;100302.00;;;;4968901;28;20181;-41
2021/12/03 08:21:14;;;;;;;4.90;4.10;;;13.40;57.70;14.50;100306.00;;;;4968804;28;20177;-41
2021/12/03 08:23:39;;;;;;;5.00;4.30;;;13.40;58.30;14.50;100306.00;;;;4969125;28;20728;-41
2021/12/03 08:26:05;;;;;;;4.97;4.10;;;13.30;57.60;14.50;100316.00;;;;4967729;28;20209;-41
2021/12/03 08:28:32;;;;;;;6.20;4.30;;;13.40;57.70;14.50;100309.00;;;;4968630;28;20178;-41
2021/12/03 08:30:58;;;;;;;5.23;4.43;;;13.30;57.60;14.40;100319.00;;;;4968743;28;20775;-41
2021/12/03 08:33:24;;;;;;;5.20;4.33;;;13.30;57.60;14.40;100318.00;;;;4968972;28;20195;-41
2021/12/03 08:35:50;;;;;;;5.33;4.50;;;13.30;57.60;14.40;100335.00;;;;4969130;28;20567;-41
2021/12/03 08:38:16;;;;;;;5.00;4.33;;;13.30;57.60;14.40;100332.00;;;;4968735;28;20181;-41
2021/12/03 08:40:41;;;;;;;4.87;4.17;;;13.20;57.60;14.40;100319.00;;;;4968807;28;20231;-41
2021/12/03 08:43:07;;;;;;;5.87;4.63;;;13.30;57.70;14.40;100308.00;;;;4968526;28;20267;-41
2021/12/03 08:45:35;;;;;;;7.00;4.77;;;13.30;57.60;14.40;100315.00;;;;4968830;28;20193;-43
2021/12/03 08:48:01;;;;;;;5.90;4.60;;;13.30;57.60;14.40;100312.00;;;;4968301;28;20192;-41
2021/12/03 08:50:30;;;;;;;5.90;4.40;;;13.30;57.60;14.40;100311.00;;;;4967905;28;20184;-41
2021/12/03 08:53:10;;;;;;;6.97;4.67;;;13.30;57.60;14.40;100312.00;;;;4968929;28;20216;-44
2021/12/03 08:55:38;;;;;;;6.70;4.90;;;13.20;57.60;14.40;100309.00;;;;4969310;28;20161;-41
2021/12/03 08:58:04;;;;;;;5.40;4.73;;;13.20;57.60;14.30;100301.00;;;;4968132;28;20673;-41
2021/12/03 09:00:30;;;;;;;6.30;4.77;;;13.20;57.50;14.30;100299.00;;;;4968615;28;20236;-41
2021/12/03 09:02:56;;;;;;;6.60;4.90;;;13.20;57.50;14.30;100291.00;;;;4968423;28;20208;-41
2021/12/03 09:05:27;;;;;;;5.77;4.53;;;13.20;57.60;14.30;100295.00;;;;4970101;28;20212;-41
2021/12/03 09:07:52;;;;;;;6.40;4.83;;;13.20;57.60;14.30;100297.00;;;;4969336;28;20168;-41
2021/12/03 09:10:18;;;;;;;5.60;4.40;;;13.20;57.60;14.30;100309.00;;;;4968532;28;20208;-41
2021/12/03 09:12:44;;;;;;;5.97;4.70;;;13.20;57.60;14.30;100294.00;;;;4963122;28;20830;-41
2021/12/03 09:15:15;;;;;;;5.90;4.70;;;13.20;57.60;14.30;100293.00;;;;4969124;28;20185;-46
2021/12/03 09:22:49;;;;;;;6.20;4.53;;;13.10;57.60;14.30;100288.00;;;;4968311;28;20204;-41
2021/12/03 09:25:20;;;;;;;5.87;4.67;;;13.10;57.70;14.30;100288.00;;;;4968312;28;20220;-40
2021/12/03 09:27:45;;;;;;;6.07;4.60;;;13.10;57.70;14.30;100294.00;;;;4967998;28;20153;-40
2021/12/03 09:30:14;;;;;;;6.63;4.67;;;13.10;57.60;14.20;100296.00;;;;4968515;28;20628;-40
2021/12/03 09:32:42;;;;;;;5.83;4.37;;;13.10;57.60;14.20;100290.00;;;;4967438;28;20189;-40
2021/12/03 09:35:09;;;;;;;6.87;4.50;;;13.10;57.70;14.20;100283.00;;;;4966504;28;20183;-40
2021/12/03 09:37:34;;;;;;;8.17;6.03;;;13.10;57.90;14.20;100283.00;;;;4968026;28;20857;-40
2021/12/03 09:40:05;;;;;;;11.60;7.77;;;13.20;58.00;14.20;100275.00;;;;4968045;28;20181;-40
2021/12/03 09:42:35;;;;;;;10.80;7.87;;;13.40;57.90;14.30;100283.00;;;;4950156;28;20676;-40
2021/12/03 09:45:00;;;;;;;13.23;7.37;;;13.70;57.90;14.40;100284.00;;;;4956347;28;20683;-40
2021/12/03 09:47:26;;;;;;;10.93;6.70;;;13.90;57.90;14.50;100274.00;;;;4967014;28;20181;-40
2021/12/03 09:49:56;;;;;;;13.13;7.13;;;14.20;57.50;14.60;100271.00;;;;4950458;28;20530;-40
2021/12/03 09:54:54;;;;;;;8.97;5.43;;;14.80;57.00;15.00;100247.00;;;;4948837;28;20194;-39
2021/12/03 10:00:07;;;;;;;6.47;5.00;;;15.40;56.20;15.40;100256.00;;;;4948227;28;20177;-40
2021/12/03 10:02:52;;;;;;;6.33;4.63;;;15.70;55.80;15.60;100259.00;;;;4948510;28;20232;-40
2021/12/03 10:09:23;;;;;;;5.57;3.97;;;16.40;55.30;16.00;100264.00;;;;4947711;28;20177;-41
2021/12/03 10:11:42;;;;;;;11.00;4.13;;;16.50;55.30;16.20;100256.00;;;;4948019;28;20212;-41
2021/12/03 10:14:23;;;;;;;6.47;3.97;;;16.60;55.40;16.40;100248.00;;;;4948828;28;20251;-42
2021/12/03 10:17:35;;;;;;;5.37;3.63;;;16.90;55.80;16.60;100248.00;;;;4952349;29;20162;-41
2021/12/03 10:28:31;;;;;;;4.93;3.07;;;17.30;55.50;17.10;100238.00;;;;4971002;28;20161;-41
2021/12/03 10:33:49;;;;;;;6.43;2.77;;;17.40;55.20;17.30;100227.00;;;;4971679;28;20264;-41
2021/12/03 10:38:52;;;;;;;5.97;3.00;;;17.60;55.10;17.40;100226.00;;;;4951151;28;20178;-41
2021/12/03 10:41:43;;;;;;;4.93;3.13;;;17.50;55.10;17.50;100220.00;;;;4951187;28;20755;-41
2021/12/03 10:47:00;;;;;;;3.67;2.70;;;17.50;55.40;17.60;100217.00;;;;4951430;28;20214;-41
2021/12/03 10:49:46;;;;;;;6.43;3.00;;;17.40;55.50;17.60;100209.00;;;;4951013;28;20154;-41
2021/12/03 10:52:21;;;;;;;3.87;2.77;;;17.30;55.50;17.60;100202.00;;;;4951506;28;20235;-42
2021/12/03 11:11:41;;;;;;;3.83;2.40;;;16.90;56.30;17.50;100172.00;;;;4898885;29;20277;-41
2021/12/03 11:15:07;;;;;;;3.30;2.40;;;16.90;56.30;17.40;100165.00;;;;4947422;28;20193;-41
2021/12/03 11:17:37;;;;;;;2.97;2.43;;;16.80;56.20;17.40;100156.00;;;;4950024;29;20244;-41
2021/12/03 11:38:55;;;;;;;2.87;2.13;;;16.60;56.70;17.30;100119.00;;;;4940664;29;20170;-39
2021/12/03 11:42:07;;;;;;;3.97;2.30;;;16.80;56.30;17.30;100108.00;;;;4949542;29;20217;-42
2021/12/03 11:45:10;;;;;;;4.70;2.40;;;17.20;56.10;17.50;100109.00;;;;4950634;29;20675;-42
2021/12/03 11:48:05;;;;;;;2.90;2.30;;;17.50;55.50;17.60;100045.00;;;;4951368;29;20206;-41
2021/12/03 12:05:31;;;;;;;3.20;2.10;;;18.00;54.90;18.10;100094.00;;;;4969531;28;20169;-40
2021/12/03 12:10:49;;;;;;;3.90;2.40;;;18.00;55.10;18.10;100079.00;;;;4957291;28;20454;-39
2021/12/03 13:09:50;;;;;;;2.63;1.90;;;17.10;57.10;17.80;100000.00;;;;4947302;29;20233;-41